To NAV CANADA Home Page Login to a new session Search on AWWS site Feedback and Comments Disclaimer Vers la page française équivalente Tips FAQ What's new on the site To the Forecasts and Observations / NOTAM section To "File a Flight Plan" website Publications and other links Update of the User's profile FIC Telephone Numbers My Weather Data Folder Route Weather Data Regional Weather Data Local Weather Data To the Forecasts and Observations / NOTAM section
Request Generated 07/30/2016 at 13:02:50 UTC . Weather information available at that time is displayed.

METAR/TAF

RED DEER REGIONAL/AB    

METAR CYQF 301300Z 04004KT 350V060 15SM -RA FEW020 BKN100 BKN160
14/13 A2981 RMK SC1AC4AC2 SLP091 DENSITY ALT 3600FT=
METAR CYQF 301200Z 29007KT 6SM -RA FEW020 BKN090 OVC140 14/13 A2985
RMK SC2AC5AC1 SLP105 DENSITY ALT 3600FT=
SPECI CYQF 301135Z 28008KT 15SM -RA SCT020 OVC090 15/13 A2984 RMK
SC3AC5 PRESRR SLP102 DENSITY ALT 3600FT=
METAR CYQF 301100Z 30006KT 270V030 15SM BKN100 15/13 A2980 RMK AC7
PRESRR SLP088 DENSITY ALT 3800FT=

TAF CYQF 301139Z 3012/3024 32007KT P6SM BKN100 TEMPO 3012/3015 P6SM
-SHRA PROB30 3012/3015 VRB15G25KT 3SM TSRA BR BKN070CB
FM301500 33010KT P6SM SCT025 BKN070 TEMPO 3015/3020 P6SM -SHRA
BKN020 OVC060
FM302000 34012KT P6SM SCT030 BKN070 TEMPO 3020/3024 P6SM -SHRA
PROB30 3020/3024 VRB15G25KT 3SM TSRA BKN030CB
RMK NXT FCST BY 301800Z=
Your time UTC time
Weather data provided by Environment Canada and NAV CANADA